createdAt,value
2023-12-17T00:00:00.639Z,4.5
2023-12-17T00:05:00.580Z,4.5
2023-12-17T00:10:00.537Z,4.5
2023-12-17T00:15:00.568Z,4.5
2023-12-17T00:20:00.577Z,4.5
2023-12-17T00:25:00.576Z,4.5
2023-12-17T00:30:00.727Z,4.5
2023-12-17T00:35:00.526Z,4.5
2023-12-17T00:40:00.524Z,4.5
2023-12-17T00:45:00.552Z,4.5
2023-12-17T00:50:00.533Z,4.5
2023-12-17T00:55:00.543Z,4.4
2023-12-17T01:00:00.587Z,4.4
2023-12-17T01:05:00.531Z,4.4
2023-12-17T01:10:00.519Z,4.5
2023-12-17T01:15:00.732Z,4.5
2023-12-17T01:20:00.746Z,4.5
2023-12-17T01:25:00.521Z,4.5
2023-12-17T01:30:00.677Z,4.4
2023-12-17T01:35:00.513Z,4.4
2023-12-17T01:40:00.537Z,4.4
2023-12-17T01:45:00.611Z,4.4
2023-12-17T01:50:00.518Z,4.4
2023-12-17T01:55:00.531Z,4.4
2023-12-17T02:00:00.656Z,4.4
2023-12-17T02:05:00.517Z,4.4
2023-12-17T02:10:00.541Z,4.4
2023-12-17T02:15:00.667Z,4.4
2023-12-17T02:20:00.579Z,4.4
2023-12-17T02:25:00.533Z,4.4
2023-12-17T02:30:00.639Z,4.4
2023-12-17T02:35:00.529Z,4.4
2023-12-17T02:40:00.545Z,4.4
2023-12-17T02:45:00.600Z,4.4
2023-12-17T02:50:00.593Z,4.4
2023-12-17T02:55:00.551Z,4.4
2023-12-17T03:00:00.570Z,4.4
2023-12-17T03:05:00.620Z,4.4
2023-12-17T03:10:00.583Z,4.4
2023-12-17T03:15:00.614Z,4.4
2023-12-17T03:20:00.528Z,4.4
2023-12-17T03:25:00.530Z,4.4
2023-12-17T03:30:00.567Z,4.4
2023-12-17T03:35:00.541Z,4.4
2023-12-17T03:40:00.520Z,4.4
2023-12-17T03:45:00.595Z,4.4
2023-12-17T03:50:00.523Z,4.4
2023-12-17T03:55:00.525Z,4.4
2023-12-17T04:00:00.573Z,4.4
2023-12-17T04:05:00.620Z,4.4
2023-12-17T04:10:00.524Z,4.4
2023-12-17T04:15:00.553Z,4.4
2023-12-17T04:20:00.670Z,4.4
2023-12-17T04:25:00.549Z,4.4
2023-12-17T04:30:00.605Z,4.4
2023-12-17T04:35:00.564Z,4.4
2023-12-17T04:40:00.526Z,4.4
2023-12-17T04:45:00.542Z,4.4
2023-12-17T04:50:00.633Z,4.4
2023-12-17T04:55:00.537Z,4.4
2023-12-17T05:00:00.583Z,4.4
2023-12-17T05:05:00.654Z,4.4
2023-12-17T05:10:00.527Z,4.4
2023-12-17T05:15:00.550Z,4.4
2023-12-17T05:20:00.552Z,4.3
2023-12-17T05:25:00.524Z,4.3
2023-12-17T05:30:00.616Z,4.3
2023-12-17T05:35:00.525Z,4.3
2023-12-17T05:40:00.575Z,4.3
2023-12-17T05:45:00.549Z,4.3
2023-12-17T05:50:00.992Z,4.3
2023-12-17T05:55:00.504Z,4.2
2023-12-17T06:00:00.574Z,4.2
2023-12-17T06:05:00.542Z,4.2
2023-12-17T06:10:00.552Z,4.2
2023-12-17T06:15:00.600Z,4.2
2023-12-17T06:20:00.557Z,4.3
2023-12-17T06:25:00.526Z,4.3
2023-12-17T06:30:00.571Z,4.3
2023-12-17T06:35:00.523Z,4.2
2023-12-17T06:40:00.520Z,4.2
2023-12-17T06:45:00.568Z,4.2
2023-12-17T06:50:00.778Z,4.3
2023-12-17T06:55:00.526Z,4.3
2023-12-17T07:00:00.577Z,4.3
2023-12-17T07:05:00.548Z,4.2
2023-12-17T07:10:00.537Z,4.2
2023-12-17T07:15:00.590Z,4.2
2023-12-17T07:20:00.625Z,4.2
2023-12-17T07:25:00.539Z,4.2
2023-12-17T07:30:00.589Z,4.2
2023-12-17T07:35:00.526Z,4.2
2023-12-17T07:40:00.523Z,4.2
2023-12-17T07:45:00.598Z,4.3
2023-12-17T07:50:00.555Z,4.3
2023-12-17T07:55:00.527Z,4.3
2023-12-17T08:00:00.570Z,4.3
2023-12-17T08:05:00.745Z,4.3
2023-12-17T08:10:00.539Z,4.3
2023-12-17T08:15:00.639Z,4.3
2023-12-17T08:20:00.527Z,4.3
2023-12-17T08:25:00.532Z,4.3
2023-12-17T08:30:00.603Z,4.3
2023-12-17T08:35:00.528Z,4.3
2023-12-17T08:40:00.521Z,4.4
2023-12-17T08:45:00.591Z,4.4
2023-12-17T08:50:00.589Z,4.4
2023-12-17T08:55:00.528Z,4.4
2023-12-17T09:00:00.577Z,4.4
2023-12-17T09:05:00.527Z,4.4
2023-12-17T09:10:00.533Z,4.4
2023-12-17T09:15:00.546Z,4.4
2023-12-17T09:20:00.552Z,4.4
2023-12-17T09:25:00.642Z,4.4
2023-12-17T09:30:00.616Z,4.4
2023-12-17T09:35:00.535Z,4.4
2023-12-17T09:40:00.537Z,4.5
2023-12-17T09:45:00.632Z,4.5
2023-12-17T09:50:00.584Z,4.5
2023-12-17T09:55:00.522Z,4.5
2023-12-17T10:00:00.630Z,4.6
2023-12-17T10:05:00.542Z,4.6
2023-12-17T10:10:00.534Z,4.6
2023-12-17T10:15:00.573Z,4.6
2023-12-17T10:20:00.716Z,4.7
2023-12-17T10:25:00.535Z,4.6
2023-12-17T10:30:00.572Z,4.7
2023-12-17T10:35:00.729Z,4.7
2023-12-17T10:40:00.525Z,4.7
2023-12-17T10:45:00.566Z,4.7
2023-12-17T10:50:00.578Z,4.7
2023-12-17T10:55:00.522Z,4.7
2023-12-17T11:00:00.567Z,4.8
2023-12-17T11:05:00.533Z,4.8
2023-12-17T11:10:00.538Z,4.8
2023-12-17T11:15:00.693Z,4.8
2023-12-17T11:20:00.797Z,4.9
2023-12-17T11:25:00.585Z,4.9
2023-12-17T11:30:00.590Z,4.9
2023-12-17T11:35:00.557Z,4.8
2023-12-17T11:40:00.535Z,4.9
2023-12-17T11:50:00.621Z,4.9
2023-12-17T11:55:00.569Z,4.9
2023-12-17T12:00:00.682Z,4.9
2023-12-17T12:05:00.565Z,4.9
2023-12-17T12:10:00.526Z,4.9
2023-12-17T12:15:00.540Z,5
2023-12-17T12:20:01.031Z,5
2023-12-17T12:25:00.536Z,5
2023-12-17T12:30:00.579Z,5
2023-12-17T12:35:00.577Z,4.9
2023-12-17T12:40:03.072Z,5
2023-12-17T12:45:00.554Z,5
2023-12-17T12:50:00.559Z,4.9
2023-12-17T12:55:00.554Z,5
2023-12-17T13:00:00.614Z,4.9
2023-12-17T13:05:00.522Z,5
2023-12-17T13:10:05.428Z,5
2023-12-17T13:15:00.560Z,4.9
2023-12-17T13:20:00.643Z,4.9
2023-12-17T13:25:00.533Z,4.9
2023-12-17T13:30:00.603Z,4.9
2023-12-17T13:35:00.553Z,4.9
2023-12-17T13:40:00.524Z,4.9
2023-12-17T13:45:00.623Z,4.9
2023-12-17T13:50:00.565Z,4.9
2023-12-17T13:55:00.539Z,4.9
2023-12-17T14:00:00.604Z,4.9
2023-12-17T14:05:00.547Z,4.9
2023-12-17T14:10:00.548Z,4.9
2023-12-17T14:15:00.563Z,4.9
2023-12-17T14:20:00.791Z,4.9
2023-12-17T14:25:00.536Z,4.9
2023-12-17T14:30:00.575Z,4.9
2023-12-17T14:35:00.534Z,4.9
2023-12-17T14:40:00.535Z,4.9
2023-12-17T14:45:00.579Z,4.9
2023-12-17T14:50:00.610Z,4.9
2023-12-17T14:55:00.528Z,4.9
2023-12-17T15:00:00.627Z,4.9
2023-12-17T15:05:00.543Z,4.9
2023-12-17T15:10:00.643Z,4.9
2023-12-17T15:15:00.559Z,4.9
2023-12-17T15:20:00.570Z,4.9
2023-12-17T15:25:00.560Z,4.9
2023-12-17T15:30:00.604Z,4.9
2023-12-17T15:35:00.528Z,4.9
2023-12-17T15:40:00.549Z,4.9
2023-12-17T15:45:00.565Z,4.9
2023-12-17T15:50:00.570Z,4.9
2023-12-17T15:55:00.526Z,4.9
2023-12-17T16:00:00.668Z,4.9
2023-12-17T16:05:00.550Z,4.9
2023-12-17T16:10:00.524Z,4.9
2023-12-17T16:15:00.591Z,4.9
2023-12-17T16:20:00.525Z,4.9
2023-12-17T16:25:00.526Z,4.9
2023-12-17T16:30:00.608Z,4.9
2023-12-17T16:35:00.537Z,4.9
2023-12-17T16:40:00.519Z,4.9
2023-12-17T16:45:00.563Z,4.9
2023-12-17T16:50:00.613Z,4.8
2023-12-17T16:55:00.593Z,4.8
2023-12-17T17:00:00.655Z,4.9
2023-12-17T17:05:00.644Z,4.9
2023-12-17T17:10:00.551Z,4.9
2023-12-17T17:15:00.609Z,4.9
2023-12-17T17:20:00.526Z,4.9
2023-12-17T17:25:00.527Z,4.9
2023-12-17T17:30:01.006Z,4.9
2023-12-17T17:35:00.528Z,4.9
2023-12-17T17:40:00.519Z,4.9
2023-12-17T17:45:00.708Z,4.9
2023-12-17T17:50:00.544Z,4.9
2023-12-17T17:55:00.549Z,4.9
2023-12-17T18:00:00.602Z,4.9
2023-12-17T18:05:00.547Z,4.9
2023-12-17T18:10:00.541Z,4.9
2023-12-17T18:15:00.570Z,4.9
2023-12-17T18:20:00.532Z,4.9
2023-12-17T18:25:00.524Z,4.8
2023-12-17T18:30:00.650Z,4.8
2023-12-17T18:35:00.539Z,4.8
2023-12-17T18:40:00.540Z,4.7
2023-12-17T18:45:00.579Z,4.7
2023-12-17T18:50:00.534Z,4.7
2023-12-17T18:55:00.543Z,4.7
2023-12-17T19:00:00.752Z,4.7
2023-12-17T19:05:00.621Z,4.7
2023-12-17T19:10:00.542Z,4.7
2023-12-17T19:15:00.559Z,4.7
2023-12-17T19:20:00.523Z,4.7
2023-12-17T19:25:00.527Z,4.7
2023-12-17T19:30:00.593Z,4.7
2023-12-17T19:35:00.532Z,4.7
2023-12-17T19:40:00.534Z,4.7
2023-12-17T19:45:00.585Z,4.7
2023-12-17T19:50:00.570Z,4.7
2023-12-17T19:55:00.520Z,4.8
2023-12-17T20:00:00.581Z,4.8
2023-12-17T20:05:00.580Z,4.8
2023-12-17T20:10:00.568Z,4.8
2023-12-17T20:15:00.550Z,4.8
2023-12-17T20:20:00.654Z,4.8
2023-12-17T20:25:00.539Z,4.8
2023-12-17T20:30:00.622Z,4.8
2023-12-17T20:35:00.531Z,4.8
2023-12-17T20:40:00.535Z,4.8
2023-12-17T20:45:00.622Z,4.8
2023-12-17T20:50:00.542Z,4.8
2023-12-17T20:55:04.323Z,4.8
2023-12-17T21:00:00.575Z,4.8
2023-12-17T21:05:00.580Z,4.8
2023-12-17T21:10:00.531Z,4.8
2023-12-17T21:15:00.561Z,4.8
2023-12-17T21:20:00.531Z,4.8
2023-12-17T21:25:00.565Z,4.8
2023-12-17T21:30:00.852Z,4.8
2023-12-17T21:35:00.527Z,4.7
2023-12-17T21:40:00.532Z,4.7
2023-12-17T21:45:00.612Z,4.7
2023-12-17T21:50:00.523Z,4.7
2023-12-17T21:55:00.734Z,4.7
2023-12-17T22:00:00.535Z,4.7
2023-12-17T22:05:00.526Z,4.7
2023-12-17T22:10:00.531Z,4.7
2023-12-17T22:15:00.603Z,4.7
2023-12-17T22:20:00.523Z,4.7
2023-12-17T22:25:00.531Z,4.7
2023-12-17T22:30:00.609Z,4.7
2023-12-17T22:35:00.532Z,4.7
2023-12-17T22:40:00.537Z,4.7
2023-12-17T22:45:00.620Z,4.7
2023-12-17T22:50:00.553Z,4.7
2023-12-17T22:55:00.554Z,4.7
2023-12-17T23:00:00.682Z,4.7
2023-12-17T23:05:00.575Z,4.7
2023-12-17T23:10:00.534Z,4.7
2023-12-17T23:15:00.540Z,4.7
2023-12-17T23:20:00.525Z,4.7
2023-12-17T23:25:00.536Z,4.7
2023-12-17T23:30:00.571Z,4.7
2023-12-17T23:35:00.521Z,4.7
2023-12-17T23:40:00.524Z,4.7
2023-12-17T23:45:02.077Z,4.7
2023-12-17T23:50:00.522Z,4.7
2023-12-17T23:55:00.526Z,4.7
